Time;durP1;ratioP1;P1;durP2;ratioP2;P2;SDS_P1;SDS_P2;PMS_P1;PMS_P2;Temp;Humidity;BMP_temperature;BMP_pressure;BME280_temperature;BME280_humidity;BME280_pressure;Samples;Min_cycle;Max_cycle;Signal;HPM_P1;HPM_P2
2023/04/29 00:01:50;;;;;;;6.20;5.70;;;;;;;;;;5071640;28;20555;-63
2023/04/29 00:04:17;;;;;;;6.00;5.47;;;;;;;;;;5073475;28;20487;-63
2023/04/29 00:06:44;;;;;;;6.47;5.53;;;;;;;;;;5075479;28;20494;-63
2023/04/29 00:09:11;;;;;;;6.67;5.30;;;;;;;;;;5075356;28;20491;-63
2023/04/29 00:11:38;;;;;;;6.00;5.50;;;;;;;;;;5075250;28;20452;-63
2023/04/29 00:14:05;;;;;;;5.77;5.30;;;;;;;;;;5075266;28;20534;-63
2023/04/29 00:16:34;;;;;;;5.30;4.83;;;;;;;;;;5075134;28;20447;-64
2023/04/29 00:19:01;;;;;;;5.40;5.00;;;;;;;;;;5075534;28;20453;-63
2023/04/29 00:21:28;;;;;;;5.70;5.30;;;;;;;;;;5075260;28;20501;-63
2023/04/29 00:23:55;;;;;;;6.00;5.40;;;;;;;;;;5075225;28;20791;-63
2023/04/29 00:26:22;;;;;;;8.03;5.90;;;;;;;;;;5075060;28;21030;-64
2023/04/29 00:28:49;;;;;;;6.73;6.00;;;;;;;;;;5074954;28;20538;-63
2023/04/29 00:31:16;;;;;;;6.53;5.87;;;;;;;;;;5074856;28;20483;-63
2023/04/29 00:33:44;;;;;;;7.80;6.30;;;;;;;;;;5075279;28;20481;-63
2023/04/29 00:36:11;;;;;;;5.33;5.03;;;;;;;;;;5074832;28;20570;-63
2023/04/29 00:38:38;;;;;;;7.60;5.40;;;;;;;;;;5074811;28;20447;-63
2023/04/29 00:41:05;;;;;;;6.30;5.80;;;;;;;;;;5074710;28;20454;-63
2023/04/29 00:43:32;;;;;;;6.90;6.20;;;;;;;;;;5074542;28;20486;-63
2023/04/29 00:45:59;;;;;;;6.27;5.40;;;;;;;;;;5074858;28;20543;-63
2023/04/29 00:48:26;;;;;;;6.43;5.93;;;;;;;;;;5074703;28;20535;-63
2023/04/29 00:50:55;;;;;;;6.63;6.13;;;;;;;;;;5074545;28;20455;-63
2023/04/29 00:53:22;;;;;;;7.57;6.83;;;;;;;;;;5074254;28;20479;-63
2023/04/29 00:55:51;;;;;;;6.33;5.83;;;;;;;;;;5074456;28;20436;-63
2023/04/29 00:58:18;;;;;;;6.03;5.53;;;;;;;;;;5074492;28;20465;-63
2023/04/29 01:00:45;;;;;;;6.37;5.83;;;;;;;;;;5074851;28;20482;-63
2023/04/29 01:03:13;;;;;;;7.50;6.10;;;;;;;;;;5074798;28;20986;-63
2023/04/29 01:05:40;;;;;;;6.57;5.93;;;;;;;;;;5074672;28;20475;-63
2023/04/29 01:08:14;;;;;;;5.53;5.03;;;;;;;;;;5074557;28;20458;-63
2023/04/29 01:10:45;;;;;;;6.43;5.80;;;;;;;;;;5074387;28;20504;-63
2023/04/29 01:13:27;;;;;;;7.13;6.33;;;;;;;;;;5074827;28;20456;-63
2023/04/29 01:15:57;;;;;;;7.37;6.07;;;;;;;;;;5074458;28;20542;-63
2023/04/29 01:18:26;;;;;;;6.70;6.20;;;;;;;;;;5074339;28;20446;-63
2023/04/29 01:20:54;;;;;;;7.37;6.37;;;;;;;;;;5074485;28;20517;-63
2023/04/29 01:23:27;;;;;;;6.80;6.10;;;;;;;;;;5074057;28;20479;-63
2023/04/29 01:25:56;;;;;;;7.00;6.30;;;;;;;;;;5074328;28;20486;-64
2023/04/29 01:28:30;;;;;;;7.00;5.80;;;;;;;;;;5074223;28;20450;-63
2023/04/29 01:30:58;;;;;;;7.63;5.90;;;;;;;;;;5074170;28;20447;-63
2023/04/29 01:33:30;;;;;;;6.50;6.00;;;;;;;;;;5073997;28;20458;-63
2023/04/29 01:36:01;;;;;;;6.27;5.77;;;;;;;;;;5074217;28;20478;-63
2023/04/29 01:38:33;;;;;;;6.80;6.30;;;;;;;;;;5074059;28;20534;-64
2023/04/29 01:41:06;;;;;;;7.73;6.87;;;;;;;;;;5074004;28;20444;-63
2023/04/29 01:43:34;;;;;;;7.60;6.90;;;;;;;;;;5073707;28;20827;-63
2023/04/29 01:46:03;;;;;;;7.67;6.97;;;;;;;;;;5073671;28;20448;-63
2023/04/29 01:48:30;;;;;;;8.10;7.30;;;;;;;;;;5073673;28;20456;-62
2023/04/29 01:50:57;;;;;;;9.07;7.30;;;;;;;;;;5074049;28;20459;-63
2023/04/29 01:53:24;;;;;;;7.83;7.03;;;;;;;;;;5073602;28;20475;-63
2023/04/29 01:55:51;;;;;;;7.63;6.20;;;;;;;;;;5073658;28;20458;-63
2023/04/29 01:58:19;;;;;;;7.43;6.43;;;;;;;;;;5073467;28;20523;-63
2023/04/29 02:00:46;;;;;;;10.20;7.40;;;;;;;;;;5073814;28;20544;-63
2023/04/29 02:03:13;;;;;;;7.13;6.47;;;;;;;;;;5073640;28;20534;-63
2023/04/29 02:05:40;;;;;;;7.70;7.00;;;;;;;;;;5073826;28;20548;-63
2023/04/29 02:08:07;;;;;;;7.67;6.90;;;;;;;;;;5073546;28;20448;-63
2023/04/29 02:10:34;;;;;;;8.57;6.67;;;;;;;;;;5073294;28;20456;-63
2023/04/29 02:13:01;;;;;;;8.20;7.53;;;;;;;;;;5073304;28;20452;-63
2023/04/29 02:15:29;;;;;;;8.37;7.67;;;;;;;;;;5073555;28;20456;-63
2023/04/29 02:17:56;;;;;;;8.13;7.40;;;;;;;;;;5073528;28;20823;-63
2023/04/29 02:20:23;;;;;;;9.37;8.50;;;;;;;;;;5073373;28;20532;-63
2023/04/29 02:22:50;;;;;;;8.43;7.63;;;;;;;;;;5073252;28;20479;-63
2023/04/29 02:25:17;;;;;;;7.80;7.00;;;;;;;;;;5073115;28;20813;-63
2023/04/29 02:27:44;;;;;;;9.47;8.27;;;;;;;;;;5072613;28;20456;-63
2023/04/29 02:30:11;;;;;;;8.20;7.40;;;;;;;;;;5073351;28;20474;-63
2023/04/29 02:32:40;;;;;;;10.50;9.23;;;;;;;;;;5073532;28;20448;-64
2023/04/29 02:35:07;;;;;;;8.17;7.37;;;;;;;;;;5073174;28;20452;-63
2023/04/29 02:37:34;;;;;;;9.37;8.40;;;;;;;;;;5073142;28;20538;-63
2023/04/29 02:40:03;;;;;;;7.83;7.13;;;;;;;;;;5072978;28;20542;-63
2023/04/29 02:42:30;;;;;;;9.33;6.93;;;;;;;;;;5073144;28;20860;-63
2023/04/29 02:44:57;;;;;;;8.03;7.43;;;;;;;;;;5073074;28;20476;-63
2023/04/29 02:47:24;;;;;;;9.00;8.20;;;;;;;;;;5073382;28;20453;-63
2023/04/29 02:49:52;;;;;;;7.87;7.17;;;;;;;;;;5073035;28;20444;-63
2023/04/29 02:52:19;;;;;;;9.20;8.10;;;;;;;;;;5072940;28;20495;-63
2023/04/29 02:54:46;;;;;;;8.93;8.23;;;;;;;;;;5072622;28;20575;-63
2023/04/29 02:57:13;;;;;;;8.73;7.60;;;;;;;;;;5073047;28;20490;-63
2023/04/29 02:59:40;;;;;;;9.67;8.87;;;;;;;;;;5073050;28;20455;-63
2023/04/29 03:02:07;;;;;;;9.13;8.43;;;;;;;;;;5072837;28;20509;-63
2023/04/29 03:04:34;;;;;;;9.23;8.43;;;;;;;;;;5072709;28;20954;-63
2023/04/29 03:07:03;;;;;;;13.57;8.90;;;;;;;;;;5072738;28;20456;-63
2023/04/29 03:09:30;;;;;;;11.17;8.57;;;;;;;;;;5072866;28;20493;-63
2023/04/29 03:11:57;;;;;;;10.57;9.50;;;;;;;;;;5072858;28;20478;-62
2023/04/29 03:14:24;;;;;;;9.73;8.73;;;;;;;;;;5072845;28;20452;-63
2023/04/29 03:16:51;;;;;;;10.57;9.53;;;;;;;;;;5072780;28;20550;-63
2023/04/29 03:19:18;;;;;;;10.23;9.10;;;;;;;;;;5072624;28;20467;-63
2023/04/29 03:21:45;;;;;;;12.73;10.17;;;;;;;;;;5072831;28;20451;-63
2023/04/29 03:24:14;;;;;;;9.63;8.73;;;;;;;;;;5072774;28;20488;-63
2023/04/29 03:26:41;;;;;;;10.70;9.70;;;;;;;;;;5072646;28;20491;-64
2023/04/29 03:29:09;;;;;;;12.70;10.43;;;;;;;;;;5072626;28;20458;-63
2023/04/29 03:31:36;;;;;;;9.70;8.90;;;;;;;;;;5072604;28;20542;-63
2023/04/29 03:34:03;;;;;;;11.17;10.17;;;;;;;;;;5072445;28;20538;-63
2023/04/29 03:36:30;;;;;;;13.33;10.67;;;;;;;;;;5072434;28;20779;-62
2023/04/29 03:38:57;;;;;;;11.60;10.50;;;;;;;;;;5073981;28;20785;-63
2023/04/29 03:41:25;;;;;;;13.20;10.80;;;;;;;;;;5076439;28;20450;-63
2023/04/29 03:43:53;;;;;;;12.47;11.17;;;;;;;;;;5076089;28;21036;-63
2023/04/29 03:46:20;;;;;;;12.87;11.53;;;;;;;;;;5076221;28;20452;-62
2023/04/29 03:48:48;;;;;;;11.77;10.67;;;;;;;;;;5076263;28;20483;-61
2023/04/29 03:51:15;;;;;;;12.80;11.50;;;;;;;;;;5076010;28;20505;-61
2023/04/29 03:53:42;;;;;;;11.67;10.50;;;;;;;;;;5076038;28;20555;-61
2023/04/29 03:56:09;;;;;;;13.17;11.77;;;;;;;;;;5076040;28;20478;-61
2023/04/29 03:58:37;;;;;;;12.63;10.63;;;;;;;;;;5076086;28;20542;-62
2023/04/29 04:01:04;;;;;;;15.10;11.30;;;;;;;;;;5075961;28;20448;-62
2023/04/29 04:03:31;;;;;;;11.23;10.33;;;;;;;;;;5075999;28;20455;-62
2023/04/29 04:05:58;;;;;;;11.93;10.83;;;;;;;;;;5076037;28;20480;-62
2023/04/29 04:08:25;;;;;;;13.03;11.83;;;;;;;;;;5075954;28;20483;-61
2023/04/29 04:10:52;;;;;;;13.37;12.07;;;;;;;;;;5075856;28;20444;-61
2023/04/29 04:13:19;;;;;;;12.80;11.60;;;;;;;;;;5075770;28;20538;-61
2023/04/29 04:15:51;;;;;;;12.73;11.43;;;;;;;;;;5075679;28;20455;-61
2023/04/29 04:18:18;;;;;;;14.07;12.63;;;;;;;;;;5075929;28;20445;-62
2023/04/29 04:20:45;;;;;;;12.87;11.60;;;;;;;;;;5075723;28;20448;-62
2023/04/29 04:23:12;;;;;;;12.37;11.27;;;;;;;;;;5075622;28;20452;-63
2023/04/29 04:25:38;;;;;;;13.90;12.50;;;;;;;;;;5075471;28;20490;-62
2023/04/29 04:28:06;;;;;;;12.10;11.00;;;;;;;;;;5075556;28;20454;-61
2023/04/29 04:30:33;;;;;;;17.43;12.57;;;;;;;;;;5075358;28;20452;-62
2023/04/29 04:33:01;;;;;;;14.00;12.60;;;;;;;;;;5075486;28;20562;-62
2023/04/29 04:35:28;;;;;;;13.80;12.50;;;;;;;;;;5075414;28;20459;-62
2023/04/29 04:37:55;;;;;;;14.20;12.87;;;;;;;;;;5075421;28;20541;-63
2023/04/29 04:40:22;;;;;;;14.37;12.97;;;;;;;;;;5075339;28;20448;-62
2023/04/29 04:42:49;;;;;;;14.40;13.10;;;;;;;;;;5075209;28;20456;-63
2023/04/29 04:45:16;;;;;;;15.43;14.03;;;;;;;;;;5074925;28;20572;-63
2023/04/29 04:47:43;;;;;;;14.10;12.80;;;;;;;;;;5075328;28;20452;-63
2023/04/29 04:50:11;;;;;;;15.37;13.80;;;;;;;;;;5074734;28;20892;-63
2023/04/29 04:52:39;;;;;;;15.10;13.63;;;;;;;;;;5074864;28;20828;-62
2023/04/29 04:55:06;;;;;;;15.13;13.57;;;;;;;;;;5074988;28;20448;-64
2023/04/29 04:57:33;;;;;;;14.33;13.03;;;;;;;;;;5075026;28;20526;-63
2023/04/29 05:00:00;;;;;;;15.60;14.03;;;;;;;;;;5075381;28;20538;-63
2023/04/29 05:02:27;;;;;;;15.07;13.50;;;;;;;;;;5074954;28;20451;-63
2023/04/29 05:04:54;;;;;;;18.00;14.33;;;;;;;;;;5074867;28;20486;-64
2023/04/29 05:07:22;;;;;;;16.67;14.97;;;;;;;;;;5074797;28;20470;-64
2023/04/29 05:09:49;;;;;;;16.80;15.10;;;;;;;;;;5074674;28;20542;-64
2023/04/29 05:12:16;;;;;;;16.00;14.60;;;;;;;;;;5074640;28;20454;-64
2023/04/29 05:14:43;;;;;;;17.67;15.87;;;;;;;;;;5074496;28;20969;-64
2023/04/29 05:17:10;;;;;;;19.30;17.40;;;;;;;;;;5074602;28;20448;-63
2023/04/29 05:19:37;;;;;;;18.00;16.37;;;;;;;;;;5074521;28;20475;-64
2023/04/29 05:22:04;;;;;;;17.17;15.37;;;;;;;;;;5075214;28;20455;-64
2023/04/29 05:24:32;;;;;;;17.90;16.20;;;;;;;;;;5074276;28;20539;-64
2023/04/29 05:26:59;;;;;;;17.93;15.00;;;;;;;;;;5074235;28;20452;-63
2023/04/29 05:29:26;;;;;;;17.80;16.10;;;;;;;;;;5074416;28;20478;-64
2023/04/29 05:31:53;;;;;;;16.43;14.73;;;;;;;;;;5074332;28;20455;-63
2023/04/29 05:34:20;;;;;;;18.03;16.17;;;;;;;;;;5074206;28;20481;-63
2023/04/29 05:36:47;;;;;;;19.00;17.10;;;;;;;;;;5073957;28;20980;-63
2023/04/29 05:39:14;;;;;;;19.90;18.00;;;;;;;;;;5073870;28;20454;-63
2023/04/29 05:41:43;;;;;;;18.63;16.83;;;;;;;;;;5073815;28;20452;-63
2023/04/29 05:44:10;;;;;;;18.90;17.00;;;;;;;;;;5073983;28;20541;-63
2023/04/29 05:46:37;;;;;;;18.73;16.80;;;;;;;;;;5073784;28;20483;-63
2023/04/29 05:49:04;;;;;;;19.47;17.50;;;;;;;;;;5073774;28;20953;-63
2023/04/29 05:51:31;;;;;;;18.33;16.50;;;;;;;;;;5073671;28;20807;-62
2023/04/29 05:53:59;;;;;;;19.40;17.50;;;;;;;;;;5073347;28;20893;-63
2023/04/29 05:56:26;;;;;;;21.13;18.90;;;;;;;;;;5073839;28;20988;-64
2023/04/29 05:58:54;;;;;;;19.13;17.13;;;;;;;;;;5073716;28;20451;-62
2023/04/29 06:01:21;;;;;;;19.93;17.73;;;;;;;;;;5072827;28;20456;-63
2023/04/29 06:03:48;;;;;;;20.00;17.90;;;;;;;;;;5073457;28;20542;-63
2023/04/29 06:06:15;;;;;;;21.17;18.97;;;;;;;;;;5073608;28;20586;-63
2023/04/29 06:08:42;;;;;;;19.10;17.10;;;;;;;;;;5073217;28;20448;-63
2023/04/29 06:11:09;;;;;;;21.93;19.53;;;;;;;;;;5073472;28;20450;-63
2023/04/29 06:13:36;;;;;;;23.50;18.97;;;;;;;;;;5073293;28;20513;-63
2023/04/29 06:16:04;;;;;;;22.03;19.30;;;;;;;;;;5073311;28;21030;-63
2023/04/29 06:18:31;;;;;;;19.20;17.03;;;;;;;;;;5073187;28;20496;-63
2023/04/29 06:20:58;;;;;;;21.33;18.53;;;;;;;;;;5073158;28;20448;-63
2023/04/29 06:23:25;;;;;;;19.80;17.80;;;;;;;;;;5073403;28;20448;-63
2023/04/29 06:25:52;;;;;;;21.10;18.80;;;;;;;;;;5073126;28;20485;-63
2023/04/29 06:28:19;;;;;;;21.43;19.17;;;;;;;;;;5073140;28;20484;-63
2023/04/29 06:30:46;;;;;;;20.77;18.67;;;;;;;;;;5073132;28;20452;-63
2023/04/29 06:33:14;;;;;;;19.87;17.87;;;;;;;;;;5073023;28;20532;-63
2023/04/29 06:35:41;;;;;;;19.73;17.73;;;;;;;;;;5072931;28;20455;-63
2023/04/29 06:38:08;;;;;;;19.53;17.47;;;;;;;;;;5073062;28;20494;-63
2023/04/29 06:40:35;;;;;;;21.23;18.60;;;;;;;;;;5073077;28;20542;-63
2023/04/29 06:43:03;;;;;;;23.60;19.67;;;;;;;;;;5073036;28;20542;-63
2023/04/29 06:45:30;;;;;;;20.97;18.77;;;;;;;;;;5072821;28;20502;-63
2023/04/29 06:47:57;;;;;;;21.47;19.03;;;;;;;;;;5072776;28;20505;-62
2023/04/29 06:50:25;;;;;;;25.80;19.80;;;;;;;;;;5072790;28;20791;-62
2023/04/29 06:52:53;;;;;;;19.20;17.20;;;;;;;;;;5072710;28;20935;-62
2023/04/29 06:55:20;;;;;;;21.80;19.00;;;;;;;;;;5073120;28;20465;-63
2023/04/29 06:57:46;;;;;;;23.70;19.60;;;;;;;;;;5072817;28;20444;-62
2023/04/29 07:00:14;;;;;;;26.47;21.07;;;;;;;;;;5072640;28;20447;-63
2023/04/29 07:02:42;;;;;;;24.10;19.50;;;;;;;;;;5072617;28;20448;-62
2023/04/29 07:05:09;;;;;;;22.23;19.90;;;;;;;;;;5072786;28;20474;-62
2023/04/29 07:07:37;;;;;;;20.77;18.63;;;;;;;;;;5072836;28;20803;-62
2023/04/29 07:10:04;;;;;;;22.43;20.03;;;;;;;;;;5072628;28;20454;-62
2023/04/29 07:12:31;;;;;;;22.73;19.77;;;;;;;;;;5073396;28;20453;-62
2023/04/29 07:14:58;;;;;;;20.70;18.07;;;;;;;;;;5076723;28;20447;-62
2023/04/29 07:17:25;;;;;;;20.60;18.27;;;;;;;;;;5076565;28;20550;-62
2023/04/29 07:19:52;;;;;;;21.07;18.87;;;;;;;;;;5076777;28;20486;-62
2023/04/29 07:22:19;;;;;;;19.20;17.10;;;;;;;;;;5076621;28;20483;-63
2023/04/29 07:24:47;;;;;;;22.03;18.33;;;;;;;;;;5076622;28;20538;-63
2023/04/29 07:27:15;;;;;;;18.33;16.43;;;;;;;;;;5076405;28;20603;-63
2023/04/29 07:29:42;;;;;;;19.90;17.87;;;;;;;;;;5076306;28;20456;-62
2023/04/29 07:32:09;;;;;;;20.63;18.50;;;;;;;;;;5076515;28;20475;-63
2023/04/29 07:34:36;;;;;;;19.73;17.67;;;;;;;;;;5076478;28;20448;-62
2023/04/29 07:37:03;;;;;;;21.47;18.17;;;;;;;;;;5076355;28;20455;-63
2023/04/29 07:39:30;;;;;;;18.90;16.60;;;;;;;;;;5076228;28;20455;-63
2023/04/29 07:41:59;;;;;;;20.90;18.00;;;;;;;;;;5076165;28;20452;-62
2023/04/29 07:44:26;;;;;;;19.23;17.10;;;;;;;;;;5075825;28;20458;-62
2023/04/29 07:46:53;;;;;;;16.87;14.03;;;;;;;;;;5075930;28;20540;-61
2023/04/29 07:49:20;;;;;;;17.73;13.03;;;;;;;;;;5076069;28;20451;-62
2023/04/29 07:51:47;;;;;;;16.50;12.53;;;;;;;;;;5075989;28;20880;-63
2023/04/29 07:54:14;;;;;;;15.70;13.73;;;;;;;;;;5075778;28;21050;-62
2023/04/29 07:56:41;;;;;;;16.43;14.27;;;;;;;;;;5075807;28;20567;-62
2023/04/29 07:59:09;;;;;;;15.60;14.10;;;;;;;;;;5075691;28;20543;-62
2023/04/29 08:01:37;;;;;;;15.43;12.53;;;;;;;;;;5075972;28;20448;-61
2023/04/29 08:04:04;;;;;;;15.50;13.90;;;;;;;;;;5075843;28;20475;-62
2023/04/29 08:06:31;;;;;;;15.03;13.60;;;;;;;;;;5075644;28;20479;-62
2023/04/29 08:08:58;;;;;;;14.77;13.23;;;;;;;;;;5075798;28;20542;-62
2023/04/29 08:11:25;;;;;;;15.07;12.40;;;;;;;;;;5075429;28;20485;-62
2023/04/29 08:13:53;;;;;;;14.33;12.73;;;;;;;;;;5075721;28;20448;-63
2023/04/29 08:16:24;;;;;;;13.17;11.93;;;;;;;;;;5075686;28;20448;-62
2023/04/29 08:18:51;;;;;;;13.50;12.10;;;;;;;;;;5075657;28;20472;-62
2023/04/29 08:21:18;;;;;;;14.40;12.90;;;;;;;;;;5075540;28;20822;-62
2023/04/29 08:23:45;;;;;;;13.50;12.07;;;;;;;;;;5075059;28;20456;-62
2023/04/29 08:26:12;;;;;;;12.63;11.07;;;;;;;;;;5075173;28;20480;-62
2023/04/29 08:28:39;;;;;;;13.90;12.00;;;;;;;;;;5075485;28;20492;-63
2023/04/29 08:31:06;;;;;;;16.00;11.13;;;;;;;;;;5075497;28;20578;-62
2023/04/29 08:33:35;;;;;;;12.23;11.00;;;;;;;;;;5075364;28;20456;-63
2023/04/29 08:36:02;;;;;;;12.27;10.83;;;;;;;;;;5075209;28;20796;-63
2023/04/29 08:38:30;;;;;;;12.87;10.53;;;;;;;;;;5075162;28;20460;-62
2023/04/29 08:40:57;;;;;;;11.27;10.27;;;;;;;;;;5075295;28;20454;-62
2023/04/29 08:43:24;;;;;;;10.77;9.67;;;;;;;;;;5075272;28;20558;-62
2023/04/29 08:45:51;;;;;;;10.03;9.13;;;;;;;;;;5074998;28;20472;-62
2023/04/29 08:48:18;;;;;;;8.73;7.97;;;;;;;;;;5075056;28;20454;-62
2023/04/29 08:50:46;;;;;;;9.67;8.97;;;;;;;;;;5074949;28;20491;-62
2023/04/29 08:53:14;;;;;;;9.00;8.20;;;;;;;;;;5074757;28;20558;-62
2023/04/29 08:55:42;;;;;;;8.43;7.73;;;;;;;;;;5075013;28;20458;-62
2023/04/29 08:58:09;;;;;;;9.80;9.00;;;;;;;;;;5074821;28;20456;-62
2023/04/29 09:00:36;;;;;;;9.00;8.20;;;;;;;;;;5074901;28;20844;-62
2023/04/29 09:03:05;;;;;;;8.70;8.10;;;;;;;;;;5074764;28;20450;-63
2023/04/29 09:05:35;;;;;;;9.80;9.00;;;;;;;;;;5074489;28;20452;-63
2023/04/29 09:08:04;;;;;;;10.17;9.37;;;;;;;;;;5074811;28;20452;-63
2023/04/29 09:10:32;;;;;;;11.43;10.40;;;;;;;;;;5074588;28;20447;-62
2023/04/29 09:12:59;;;;;;;11.63;10.57;;;;;;;;;;5074698;28;20854;-62
2023/04/29 09:15:26;;;;;;;12.13;10.90;;;;;;;;;;5074530;28;20458;-63
2023/04/29 09:17:53;;;;;;;12.43;11.30;;;;;;;;;;5074318;28;20451;-62
2023/04/29 09:20:31;;;;;;;12.67;11.40;;;;;;;;;;5074340;28;20923;-62
2023/04/29 09:23:00;;;;;;;11.97;10.80;;;;;;;;;;5074575;28;21063;-62
2023/04/29 09:25:28;;;;;;;12.03;10.93;;;;;;;;;;5074370;28;20443;-62
2023/04/29 09:27:55;;;;;;;12.53;11.33;;;;;;;;;;5074372;28;20994;-62
2023/04/29 09:30:23;;;;;;;12.70;11.60;;;;;;;;;;5074180;28;20458;-62
2023/04/29 09:33:06;;;;;;;12.37;11.33;;;;;;;;;;5074039;28;20458;-63
2023/04/29 09:35:33;;;;;;;12.10;11.03;;;;;;;;;;5073804;28;20451;-62
2023/04/29 09:38:10;;;;;;;12.17;10.97;;;;;;;;;;5073546;28;20447;-62
2023/04/29 09:40:39;;;;;;;11.43;10.30;;;;;;;;;;5073970;28;20456;-62
2023/04/29 09:43:12;;;;;;;11.60;10.60;;;;;;;;;;5073911;28;20482;-62
2023/04/29 09:45:41;;;;;;;11.87;10.77;;;;;;;;;;5074023;28;20483;-62
2023/04/29 09:48:08;;;;;;;11.77;10.67;;;;;;;;;;5074139;28;20448;-62
2023/04/29 09:50:36;;;;;;;13.33;12.07;;;;;;;;;;5073881;28;20456;-62
2023/04/29 09:53:03;;;;;;;14.03;11.53;;;;;;;;;;5073629;28;20468;-62
2023/04/29 09:55:30;;;;;;;12.60;10.97;;;;;;;;;;5073665;28;20528;-61
2023/04/29 09:57:59;;;;;;;14.03;12.50;;;;;;;;;;5073901;28;20460;-62
2023/04/29 10:00:30;;;;;;;20.30;13.57;;;;;;;;;;5073811;28;20467;-61
2023/04/29 10:02:59;;;;;;;16.13;14.43;;;;;;;;;;5073652;28;20538;-62
2023/04/29 10:05:28;;;;;;;16.17;14.47;;;;;;;;;;5073597;28;20452;-61
2023/04/29 10:07:56;;;;;;;16.80;15.00;;;;;;;;;;5073374;28;20577;-62
2023/04/29 10:10:24;;;;;;;19.10;16.23;;;;;;;;;;5073322;28;20451;-62
2023/04/29 10:12:52;;;;;;;20.37;16.20;;;;;;;;;;5073275;28;20935;-62
2023/04/29 10:15:21;;;;;;;22.40;16.60;;;;;;;;;;5073445;28;20448;-62
2023/04/29 10:17:50;;;;;;;23.47;16.57;;;;;;;;;;5073407;28;20447;-62
2023/04/29 10:20:22;;;;;;;21.60;17.17;;;;;;;;;;5073303;28;20448;-62
2023/04/29 10:22:50;;;;;;;25.17;18.70;;;;;;;;;;5073143;28;20856;-62
2023/04/29 10:25:17;;;;;;;25.10;19.10;;;;;;;;;;5073502;28;20872;-62
2023/04/29 10:27:44;;;;;;;25.23;20.37;;;;;;;;;;5073155;28;20484;-62
2023/04/29 10:30:13;;;;;;;26.70;19.87;;;;;;;;;;5073129;28;20500;-62
2023/04/29 10:32:42;;;;;;;30.23;21.47;;;;;;;;;;5073071;28;20458;-62
2023/04/29 10:35:10;;;;;;;25.50;20.37;;;;;;;;;;5073045;28;20459;-62
2023/04/29 10:37:37;;;;;;;27.00;20.90;;;;;;;;;;5073205;28;20537;-62
2023/04/29 10:40:09;;;;;;;27.33;19.47;;;;;;;;;;5072890;28;20514;-62
2023/04/29 10:42:40;;;;;;;25.27;18.67;;;;;;;;;;5073162;28;20454;-62
2023/04/29 10:45:24;;;;;;;29.63;22.60;;;;;;;;;;5072681;28;20547;-62
2023/04/29 10:48:12;;;;;;;27.20;23.63;;;;;;;;;;5072594;28;20480;-62
2023/04/29 10:50:57;;;;;;;33.90;24.87;;;;;;;;;;5072967;28;20450;-62
2023/04/29 10:53:24;;;;;;;28.93;25.40;;;;;;;;;;5060466;28;20484;-62
2023/04/29 10:55:54;;;;;;;33.43;27.43;;;;;;;;;;5073013;28;21030;-62
2023/04/29 10:58:38;;;;;;;34.50;27.53;;;;;;;;;;5073062;28;20456;-62
2023/04/29 11:01:06;;;;;;;38.70;27.33;;;;;;;;;;5072912;28;20538;-62
2023/04/29 11:03:48;;;;;;;34.23;27.20;;;;;;;;;;5072813;28;20459;-62
2023/04/29 11:06:15;;;;;;;37.37;29.20;;;;;;;;;;5072656;28;20459;-62
2023/04/29 11:08:42;;;;;;;40.73;30.87;;;;;;;;;;5072542;28;20463;-62
2023/04/29 11:11:09;;;;;;;37.87;31.33;;;;;;;;;;5072801;28;20661;-62
2023/04/29 11:13:39;;;;;;;39.33;31.53;;;;;;;;;;5072796;28;20458;-62
2023/04/29 11:16:06;;;;;;;43.30;30.00;;;;;;;;;;5072741;28;20788;-62
2023/04/29 11:18:34;;;;;;;36.00;28.13;;;;;;;;;;5072841;28;20455;-62
2023/04/29 11:21:14;;;;;;;35.10;30.90;;;;;;;;;;5072562;28;20459;-62
2023/04/29 11:23:43;;;;;;;34.50;28.67;;;;;;;;;;5072682;28;20451;-62
2023/04/29 11:26:10;;;;;;;36.50;29.00;;;;;;;;;;5072546;28;20452;-62
2023/04/29 11:28:37;;;;;;;35.43;27.97;;;;;;;;;;5072485;28;20447;-63
2023/04/29 11:31:05;;;;;;;38.80;29.57;;;;;;;;;;5072536;28;20514;-62
2023/04/29 11:33:33;;;;;;;32.80;28.17;;;;;;;;;;5072901;28;20454;-62
2023/04/29 11:36:00;;;;;;;33.53;29.50;;;;;;;;;;5072593;28;20566;-62
2023/04/29 11:38:29;;;;;;;32.83;28.20;;;;;;;;;;5072347;28;20502;-62
2023/04/29 11:40:56;;;;;;;34.00;28.07;;;;;;;;;;5072369;28;20446;-62
2023/04/29 11:43:23;;;;;;;34.73;27.50;;;;;;;;;;5072287;28;20872;-62
2023/04/29 11:45:51;;;;;;;32.93;27.43;;;;;;;;;;5072150;28;20526;-62
2023/04/29 11:48:18;;;;;;;31.60;26.80;;;;;;;;;;5072030;28;20491;-62
2023/04/29 11:50:46;;;;;;;32.70;28.03;;;;;;;;;;5072093;28;20939;-62
2023/04/29 11:53:13;;;;;;;27.30;24.47;;;;;;;;;;5072133;28;20832;-62
2023/04/29 11:55:43;;;;;;;29.53;23.70;;;;;;;;;;5072179;28;20456;-62
2023/04/29 11:58:10;;;;;;;26.93;24.07;;;;;;;;;;5072558;28;20932;-62
2023/04/29 12:00:37;;;;;;;23.93;21.53;;;;;;;;;;5074449;28;20447;-62
2023/04/29 12:03:14;;;;;;;24.83;22.23;;;;;;;;;;5076196;28;20453;-62
2023/04/29 12:05:41;;;;;;;26.23;23.43;;;;;;;;;;5075911;28;20456;-62
2023/04/29 12:08:08;;;;;;;25.80;22.20;;;;;;;;;;5075801;28;20846;-62
2023/04/29 12:10:36;;;;;;;25.50;22.87;;;;;;;;;;5075846;28;20951;-62
2023/04/29 12:13:04;;;;;;;28.23;23.00;;;;;;;;;;5075498;28;20449;-62
2023/04/29 12:15:32;;;;;;;22.53;20.13;;;;;;;;;;5075680;28;21064;-62
2023/04/29 12:17:59;;;;;;;22.77;20.40;;;;;;;;;;5075522;28;20452;-62
2023/04/29 12:20:27;;;;;;;20.97;18.83;;;;;;;;;;5075247;28;20976;-63
2023/04/29 12:22:55;;;;;;;19.43;17.53;;;;;;;;;;5075327;28;20569;-62
2023/04/29 12:25:25;;;;;;;18.83;16.80;;;;;;;;;;5075367;28;20451;-63
2023/04/29 12:27:52;;;;;;;19.37;17.60;;;;;;;;;;5075156;28;20839;-62
2023/04/29 12:30:20;;;;;;;19.17;17.17;;;;;;;;;;5075407;28;20816;-62
2023/04/29 12:32:48;;;;;;;17.73;15.93;;;;;;;;;;5075317;28;20456;-62
2023/04/29 12:35:16;;;;;;;19.37;15.90;;;;;;;;;;5075230;28;20453;-63
2023/04/29 12:37:43;;;;;;;18.63;16.47;;;;;;;;;;5075031;28;20540;-62
2023/04/29 12:40:15;;;;;;;17.73;15.93;;;;;;;;;;5074978;28;20947;-62
2023/04/29 12:42:43;;;;;;;16.63;14.87;;;;;;;;;;5075223;28;20456;-62
2023/04/29 12:45:25;;;;;;;17.00;15.27;;;;;;;;;;5074876;28;20544;-62
2023/04/29 12:47:53;;;;;;;15.97;14.67;;;;;;;;;;5074862;28;20545;-62
2023/04/29 12:50:20;;;;;;;16.23;14.73;;;;;;;;;;5074761;28;20540;-63
2023/04/29 12:52:48;;;;;;;16.63;14.40;;;;;;;;;;5074486;28;20448;-63
2023/04/29 12:55:15;;;;;;;15.03;13.50;;;;;;;;;;5075004;28;20450;-62
2023/04/29 12:57:42;;;;;;;15.63;13.90;;;;;;;;;;5074948;28;20448;-62
2023/04/29 13:00:09;;;;;;;13.87;12.57;;;;;;;;;;5074829;28;20552;-62
2023/04/29 13:02:36;;;;;;;13.43;12.10;;;;;;;;;;5074700;28;20455;-62
2023/04/29 13:05:05;;;;;;;13.43;12.03;;;;;;;;;;5074681;28;20459;-62
2023/04/29 13:07:32;;;;;;;14.13;12.57;;;;;;;;;;5074438;28;21069;-62
2023/04/29 13:09:59;;;;;;;13.10;11.20;;;;;;;;;;5074569;28;20456;-62
2023/04/29 13:12:26;;;;;;;11.40;10.30;;;;;;;;;;5074547;28;20498;-62
2023/04/29 13:14:53;;;;;;;12.33;10.93;;;;;;;;;;5074381;28;20458;-61
2023/04/29 13:17:20;;;;;;;11.13;10.23;;;;;;;;;;5074415;28;20489;-62
2023/04/29 13:19:47;;;;;;;12.53;10.20;;;;;;;;;;5074510;28;20538;-62
2023/04/29 13:22:16;;;;;;;11.07;9.97;;;;;;;;;;5074537;28;20784;-62
2023/04/29 13:24:43;;;;;;;11.80;10.67;;;;;;;;;;5074362;28;20448;-62
2023/04/29 13:27:10;;;;;;;15.57;10.37;;;;;;;;;;5074181;28;20483;-62
2023/04/29 13:29:36;;;;;;;11.37;10.13;;;;;;;;;;5074072;28;20857;-62
2023/04/29 13:32:04;;;;;;;10.83;9.73;;;;;;;;;;5074079;28;20449;-63
2023/04/29 13:34:31;;;;;;;11.07;9.97;;;;;;;;;;5073991;28;20480;-63
2023/04/29 13:36:57;;;;;;;9.67;8.77;;;;;;;;;;5074206;28;20448;-62
2023/04/29 13:39:26;;;;;;;10.27;8.97;;;;;;;;;;5074132;28;20448;-63
2023/04/29 13:41:53;;;;;;;9.90;9.00;;;;;;;;;;5074006;28;20552;-62
2023/04/29 13:44:20;;;;;;;13.23;9.63;;;;;;;;;;5073821;28;20541;-62
2023/04/29 13:46:47;;;;;;;11.13;9.83;;;;;;;;;;5073698;28;20448;-62
2023/04/29 13:49:14;;;;;;;11.13;9.20;;;;;;;;;;5073944;28;20880;-62
2023/04/29 13:51:41;;;;;;;11.50;10.40;;;;;;;;;;5073869;28;20449;-62
2023/04/29 13:54:08;;;;;;;10.17;9.27;;;;;;;;;;5073456;28;20474;-63
2023/04/29 13:56:36;;;;;;;8.73;7.70;;;;;;;;;;5073658;28;20540;-63
2023/04/29 13:59:03;;;;;;;8.80;8.03;;;;;;;;;;5073857;28;20460;-63
2023/04/29 14:01:30;;;;;;;8.47;7.67;;;;;;;;;;5073439;28;20453;-62
2023/04/29 14:03:57;;;;;;;8.83;8.03;;;;;;;;;;5073557;28;20535;-62
2023/04/29 14:06:24;;;;;;;9.30;8.50;;;;;;;;;;5073488;28;20800;-62
2023/04/29 14:08:51;;;;;;;7.87;7.10;;;;;;;;;;5073516;28;20479;-62
2023/04/29 14:11:18;;;;;;;9.50;6.87;;;;;;;;;;5073454;28;20455;-62
2023/04/29 14:13:47;;;;;;;7.00;6.43;;;;;;;;;;5073408;28;20972;-63
2023/04/29 14:16:14;;;;;;;7.10;6.50;;;;;;;;;;5073277;28;20452;-62
2023/04/29 14:18:41;;;;;;;8.23;7.43;;;;;;;;;;5073484;28;20542;-63
2023/04/29 14:21:08;;;;;;;7.30;6.60;;;;;;;;;;5073400;28;20454;-62
2023/04/29 14:23:35;;;;;;;7.87;7.17;;;;;;;;;;5072784;28;20498;-62
2023/04/29 14:26:02;;;;;;;9.70;6.47;;;;;;;;;;5073180;28;20455;-62
2023/04/29 14:28:29;;;;;;;7.87;7.03;;;;;;;;;;5073093;28;20480;-62
2023/04/29 14:30:57;;;;;;;8.53;6.27;;;;;;;;;;5073341;28;20444;-63